• Join FlightAware (Why Join?)
  • Login
  • US Flag 
04:55AM EST


 

Airport Tracker/Info


-or-


 

Live Flight TrackerFlight Track Log ✈ EJA677P ✈ 18-Apr-2013 ✈ KLAS - KSAN

Flight Track Log - Related Links

Times and Time Zones

All times are in EDT time to prevent confusion due to time zone crossing. See the EJA677P flight status page for this flight to view local times or setup timezone preferences in your user account.

Time Position Orientation Groundspeed Altitude Reporting Facility
EDT Latitude Longitude Course Direction KTS MPH feet Rate Location/Type
07:51PM 36.1078 -115.1550 287° West 190 219 3,600  Level Los Angeles Center
07:52PM 36.1214 -115.2117 287° West 222 255 8,700 4,080 Climbing Los Angeles Center
07:53PM 36.0653 -115.2383 201° Southwest 265 305 11,900 3,360 Climbing Los Angeles Center
07:55PM 35.9769 -115.2508 187° South 282 325 15,700 2,760 Climbing Los Angeles Center
07:56PM 35.8869 -115.2631 186° South 308 354 18,100 2,400 Climbing Los Angeles Center
07:57PM 35.7867 -115.2783 187° South 345 397 20,700 2,280 Climbing Los Angeles Center
07:58PM 35.6803 -115.2936 187° South 371 427 22,900 1,080 Climbing Los Angeles Center
07:59PM 35.5361 -115.3000 182° South 425 489 23,000  Climbing Los Angeles Center
08:00PM 35.4131 -115.3039 181° South 439 505 23,000  Level Los Angeles Center
08:01PM 35.2897 -115.3089 182° South 441 507 23,000  Level Los Angeles Center
08:02PM 35.1647 -115.3133 182° South 438 504 23,000  Level Los Angeles Center
08:03PM 35.0431 -115.3189 182° South 437 503 23,000  Level Los Angeles Center
08:04PM 34.9236 -115.3236 182° South 437 503 23,000  Level Los Angeles Center
08:05PM 34.7778 -115.3314 183° South 437 503 23,000  Level Los Angeles Center
08:06PM 34.6636 -115.3814 200° South 433 498 23,000  Level Los Angeles Center
08:07PM 34.5503 -115.4308 200° South 431 496 23,000  Level Los Angeles Center
08:08PM 34.4378 -115.4786 199° South 429 494 23,000  Level Los Angeles Center
08:09PM 34.3311 -115.5264 200° South 430 495 23,000  Level Los Angeles Center
08:10PM 34.1994 -115.5942 203° Southwest 427 491 23,000  Level Los Angeles Center
08:11PM 34.0889 -115.6497 203° Southwest 430 495 23,000  Level Los Angeles Center
08:12PM 33.9767 -115.7078 203° Southwest 438 504 23,000  Level Los Angeles Center
08:13PM 33.8631 -115.7661 203° Southwest 442 509 23,000  Level Los Angeles Center
08:14PM 33.7508 -115.8233 203° Southwest 439 505 23,000  Level Los Angeles Center
08:15PM 33.6481 -115.8986 211° Southwest 432 497 23,000  Level Los Angeles Center
08:16PM 33.5317 -115.9972 215° Southwest 427 491 23,000 -480 Level Los Angeles Center
08:17PM 33.4350 -116.0800 216° Southwest 429 494 22,100 -1,560 Descending Los Angeles Center
08:18PM 33.3397 -116.1611 215° Southwest 424 488 19,800 -2,160 Descending Los Angeles Center
08:19PM 33.2500 -116.2375 215° Southwest 402 463 17,700 -1,980 Descending Los Angeles Center
08:20PM 33.1622 -116.3117 215° Southwest 390 449 15,700 -2,100 Descending Los Angeles Center
08:21PM 33.0619 -116.3964 215° Southwest 376 433 13,400 -1,800 Descending Los Angeles Center
08:22PM 32.9847 -116.4564 213° Southwest 368 423 12,000 -1,380 Descending Los Angeles Center
08:23PM 32.8989 -116.5050 205° Southwest 347 399 10,600 -1,080 Descending Los Angeles Center
08:25PM 32.8275 -116.5678 216° Southwest 321 369 9,800 -600 Descending Los Angeles Center
08:26PM 32.7744 -116.6769 240° Southwest 319 367 9,400 -1,020 Descending Los Angeles Center
08:27PM 32.7325 -116.7650 240° Southwest 311 358 7,700 -1,620 Descending Los Angeles Center
08:28PM 32.6986 -116.8433 243° Southwest 278 320 6,100 -1,380 Descending Los Angeles Center
08:29PM 32.6667 -116.9333 247° West 227 261 4,800 -1,260 Descending Southern California TRACON
08:30PM 32.6833 -117.0000 287° West 159 183 3,400 -1,020 Descending Southern California TRACON
08:31PM 32.7000 -117.0333 301° West 124 143 2,700 -720 Descending Southern California TRACON
08:32PM 32.7000 -117.0667 270° West 122 140 2,000 -720 Descending Southern California TRACON
08:33PM 32.7167 -117.1167 292° West 128 147 1,300 -660 Descending Southern California TRACON
08:34PM 32.7236 -117.1475 285° West 122 140 700 -540 Descending Los Angeles Center
08:35PM 32.7322 -117.1856 285° West 116 133 300 -420 Descending Los Angeles Center
08:37PM 32.7333 -117.1833 281° West  Level FlightAware Approximate